sensor_id;sensor_type;location;lat;lon;timestamp;P1;durP1;ratioP1;P2;durP2;ratioP2
12556;SDS011;6344;49.932;8.308;2022-11-20T00:01:38;30.43;;;24.13;;
12556;SDS011;6344;49.932;8.308;2022-11-20T00:04:11;32.40;;;23.60;;
12556;SDS011;6344;49.932;8.308;2022-11-20T00:06:37;35.17;;;23.70;;
12556;SDS011;6344;49.932;8.308;2022-11-20T00:09:05;32.63;;;23.40;;
12556;SDS011;6344;49.932;8.308;2022-11-20T00:11:37;34.17;;;24.50;;
12556;SDS011;6344;49.932;8.308;2022-11-20T00:14:08;37.30;;;25.70;;
12556;SDS011;6344;49.932;8.308;2022-11-20T00:16:38;31.80;;;24.60;;
12556;SDS011;6344;49.932;8.308;2022-11-20T00:19:06;31.57;;;23.93;;
12556;SDS011;6344;49.932;8.308;2022-11-20T00:21:35;36.80;;;25.63;;
12556;SDS011;6344;49.932;8.308;2022-11-20T00:24:16;33.63;;;26.60;;
12556;SDS011;6344;49.932;8.308;2022-11-20T00:26:46;38.33;;;26.47;;
12556;SDS011;6344;49.932;8.308;2022-11-20T00:29:16;34.30;;;23.70;;
12556;SDS011;6344;49.932;8.308;2022-11-20T00:31:46;30.40;;;23.67;;
12556;SDS011;6344;49.932;8.308;2022-11-20T00:34:15;33.87;;;25.13;;
12556;SDS011;6344;49.932;8.308;2022-11-20T00:36:44;35.97;;;24.10;;
12556;SDS011;6344;49.932;8.308;2022-11-20T00:39:11;34.13;;;24.90;;
12556;SDS011;6344;49.932;8.308;2022-11-20T00:41:41;34.30;;;25.03;;
12556;SDS011;6344;49.932;8.308;2022-11-20T00:44:09;34.30;;;26.10;;
12556;SDS011;6344;49.932;8.308;2022-11-20T00:46:35;37.10;;;26.30;;
12556;SDS011;6344;49.932;8.308;2022-11-20T00:49:02;35.37;;;25.27;;
12556;SDS011;6344;49.932;8.308;2022-11-20T00:51:29;35.40;;;25.90;;
12556;SDS011;6344;49.932;8.308;2022-11-20T00:53:58;36.07;;;24.90;;
12556;SDS011;6344;49.932;8.308;2022-11-20T00:56:27;34.13;;;24.50;;
12556;SDS011;6344;49.932;8.308;2022-11-20T00:58:53;33.93;;;25.93;;
12556;SDS011;6344;49.932;8.308;2022-11-20T01:01:23;31.37;;;22.70;;
12556;SDS011;6344;49.932;8.308;2022-11-20T01:03:57;32.13;;;23.27;;
12556;SDS011;6344;49.932;8.308;2022-11-20T01:06:27;33.40;;;24.83;;
12556;SDS011;6344;49.932;8.308;2022-11-20T01:08:56;34.00;;;23.43;;
12556;SDS011;6344;49.932;8.308;2022-11-20T01:11:25;35.20;;;25.10;;
12556;SDS011;6344;49.932;8.308;2022-11-20T01:13:56;35.13;;;22.83;;
12556;SDS011;6344;49.932;8.308;2022-11-20T01:16:27;36.70;;;24.50;;
12556;SDS011;6344;49.932;8.308;2022-11-20T01:18:58;33.10;;;24.27;;
12556;SDS011;6344;49.932;8.308;2022-11-20T01:21:33;33.90;;;26.30;;
12556;SDS011;6344;49.932;8.308;2022-11-20T01:24:02;35.10;;;25.30;;
12556;SDS011;6344;49.932;8.308;2022-11-20T01:26:30;33.77;;;22.87;;
12556;SDS011;6344;49.932;8.308;2022-11-20T01:28:59;35.97;;;27.07;;
12556;SDS011;6344;49.932;8.308;2022-11-20T01:31:33;39.60;;;25.90;;
12556;SDS011;6344;49.932;8.308;2022-11-20T01:34:02;32.87;;;24.90;;
12556;SDS011;6344;49.932;8.308;2022-11-20T01:36:30;31.93;;;22.30;;
12556;SDS011;6344;49.932;8.308;2022-11-20T01:38:58;36.93;;;25.67;;
12556;SDS011;6344;49.932;8.308;2022-11-20T01:41:26;36.67;;;26.00;;
12556;SDS011;6344;49.932;8.308;2022-11-20T01:44:14;30.63;;;22.57;;
12556;SDS011;6344;49.932;8.308;2022-11-20T01:46:45;32.43;;;22.50;;
12556;SDS011;6344;49.932;8.308;2022-11-20T01:49:34;32.60;;;25.00;;
12556;SDS011;6344;49.932;8.308;2022-11-20T01:52:06;44.93;;;25.63;;
12556;SDS011;6344;49.932;8.308;2022-11-20T01:54:39;38.83;;;26.33;;
12556;SDS011;6344;49.932;8.308;2022-11-20T01:57:10;36.50;;;25.50;;
12556;SDS011;6344;49.932;8.308;2022-11-20T01:59:43;37.10;;;26.00;;
12556;SDS011;6344;49.932;8.308;2022-11-20T02:02:17;39.20;;;26.67;;
12556;SDS011;6344;49.932;8.308;2022-11-20T02:04:45;36.80;;;26.13;;
12556;SDS011;6344;49.932;8.308;2022-11-20T02:07:15;46.63;;;28.80;;
12556;SDS011;6344;49.932;8.308;2022-11-20T02:09:42;38.87;;;26.43;;
12556;SDS011;6344;49.932;8.308;2022-11-20T02:12:09;37.03;;;26.30;;
12556;SDS011;6344;49.932;8.308;2022-11-20T02:14:58;39.43;;;27.57;;
12556;SDS011;6344;49.932;8.308;2022-11-20T02:17:28;43.47;;;29.07;;
12556;SDS011;6344;49.932;8.308;2022-11-20T02:19:58;43.20;;;28.57;;
12556;SDS011;6344;49.932;8.308;2022-11-20T02:22:26;39.30;;;28.30;;
12556;SDS011;6344;49.932;8.308;2022-11-20T02:24:58;37.40;;;27.30;;
12556;SDS011;6344;49.932;8.308;2022-11-20T02:27:34;39.77;;;27.87;;
12556;SDS011;6344;49.932;8.308;2022-11-20T02:30:05;40.53;;;26.77;;
12556;SDS011;6344;49.932;8.308;2022-11-20T02:32:38;40.17;;;27.17;;
12556;SDS011;6344;49.932;8.308;2022-11-20T02:38:17;41.93;;;29.40;;
12556;SDS011;6344;49.932;8.308;2022-11-20T02:40:51;38.90;;;26.10;;
12556;SDS011;6344;49.932;8.308;2022-11-20T02:43:19;45.87;;;28.43;;
12556;SDS011;6344;49.932;8.308;2022-11-20T02:45:46;36.47;;;26.33;;
12556;SDS011;6344;49.932;8.308;2022-11-20T02:48:13;38.17;;;27.60;;
12556;SDS011;6344;49.932;8.308;2022-11-20T02:50:39;43.87;;;28.70;;
12556;SDS011;6344;49.932;8.308;2022-11-20T02:53:16;42.13;;;30.00;;
12556;SDS011;6344;49.932;8.308;2022-11-20T02:55:55;42.70;;;28.17;;
12556;SDS011;6344;49.932;8.308;2022-11-20T02:58:31;41.70;;;28.30;;
12556;SDS011;6344;49.932;8.308;2022-11-20T03:00:59;40.80;;;27.83;;
12556;SDS011;6344;49.932;8.308;2022-11-20T03:03:28;40.67;;;29.13;;
12556;SDS011;6344;49.932;8.308;2022-11-20T03:05:55;43.63;;;29.60;;
12556;SDS011;6344;49.932;8.308;2022-11-20T03:08:24;42.30;;;27.77;;
12556;SDS011;6344;49.932;8.308;2022-11-20T03:10:57;43.73;;;30.07;;
12556;SDS011;6344;49.932;8.308;2022-11-20T03:13:31;44.80;;;27.30;;
12556;SDS011;6344;49.932;8.308;2022-11-20T03:16:06;42.53;;;28.80;;
12556;SDS011;6344;49.932;8.308;2022-11-20T03:18:36;41.70;;;28.70;;
12556;SDS011;6344;49.932;8.308;2022-11-20T03:21:04;35.87;;;26.07;;
12556;SDS011;6344;49.932;8.308;2022-11-20T03:23:31;44.27;;;28.53;;
12556;SDS011;6344;49.932;8.308;2022-11-20T03:26:10;45.67;;;28.70;;
12556;SDS011;6344;49.932;8.308;2022-11-20T03:28:45;36.87;;;26.10;;
12556;SDS011;6344;49.932;8.308;2022-11-20T03:31:15;42.27;;;28.87;;
12556;SDS011;6344;49.932;8.308;2022-11-20T03:33:43;43.60;;;28.87;;
12556;SDS011;6344;49.932;8.308;2022-11-20T03:36:19;43.30;;;27.60;;
12556;SDS011;6344;49.932;8.308;2022-11-20T03:38:47;44.20;;;28.87;;
12556;SDS011;6344;49.932;8.308;2022-11-20T03:41:20;47.50;;;28.77;;
12556;SDS011;6344;49.932;8.308;2022-11-20T03:43:50;41.50;;;27.87;;
12556;SDS011;6344;49.932;8.308;2022-11-20T03:46:27;42.70;;;28.23;;
12556;SDS011;6344;49.932;8.308;2022-11-20T03:48:56;45.03;;;31.90;;
12556;SDS011;6344;49.932;8.308;2022-11-20T03:51:27;47.50;;;31.20;;
12556;SDS011;6344;49.932;8.308;2022-11-20T03:53:56;41.60;;;29.27;;
12556;SDS011;6344;49.932;8.308;2022-11-20T03:56:25;40.30;;;27.57;;
12556;SDS011;6344;49.932;8.308;2022-11-20T03:58:53;43.20;;;28.50;;
12556;SDS011;6344;49.932;8.308;2022-11-20T04:01:27;43.73;;;27.07;;
12556;SDS011;6344;49.932;8.308;2022-11-20T04:03:57;42.40;;;27.03;;
12556;SDS011;6344;49.932;8.308;2022-11-20T04:06:26;42.00;;;28.73;;
12556;SDS011;6344;49.932;8.308;2022-11-20T04:08:59;42.13;;;27.97;;
12556;SDS011;6344;49.932;8.308;2022-11-20T04:11:29;41.03;;;28.97;;
12556;SDS011;6344;49.932;8.308;2022-11-20T04:13:57;48.77;;;31.03;;
12556;SDS011;6344;49.932;8.308;2022-11-20T04:16:25;40.67;;;30.20;;
12556;SDS011;6344;49.932;8.308;2022-11-20T04:18:55;46.17;;;29.87;;
12556;SDS011;6344;49.932;8.308;2022-11-20T04:21:27;43.03;;;29.30;;
12556;SDS011;6344;49.932;8.308;2022-11-20T04:23:55;47.07;;;30.70;;
12556;SDS011;6344;49.932;8.308;2022-11-20T04:26:24;48.23;;;30.20;;
12556;SDS011;6344;49.932;8.308;2022-11-20T04:28:55;43.53;;;29.00;;
12556;SDS011;6344;49.932;8.308;2022-11-20T04:31:23;47.37;;;29.47;;
12556;SDS011;6344;49.932;8.308;2022-11-20T04:33:51;44.77;;;28.03;;
12556;SDS011;6344;49.932;8.308;2022-11-20T04:36:20;43.33;;;28.60;;
12556;SDS011;6344;49.932;8.308;2022-11-20T04:38:50;42.50;;;29.87;;
12556;SDS011;6344;49.932;8.308;2022-11-20T04:41:20;44.97;;;31.27;;
12556;SDS011;6344;49.932;8.308;2022-11-20T04:43:51;46.57;;;30.43;;
12556;SDS011;6344;49.932;8.308;2022-11-20T04:46:20;46.87;;;30.60;;
12556;SDS011;6344;49.932;8.308;2022-11-20T04:48:52;42.83;;;30.10;;
12556;SDS011;6344;49.932;8.308;2022-11-20T04:51:27;46.60;;;31.83;;
12556;SDS011;6344;49.932;8.308;2022-11-20T04:53:58;42.00;;;29.37;;
12556;SDS011;6344;49.932;8.308;2022-11-20T04:56:36;42.67;;;29.20;;
12556;SDS011;6344;49.932;8.308;2022-11-20T04:59:06;53.17;;;30.30;;
12556;SDS011;6344;49.932;8.308;2022-11-20T05:01:37;36.17;;;26.90;;
12556;SDS011;6344;49.932;8.308;2022-11-20T05:04:10;45.00;;;29.03;;
12556;SDS011;6344;49.932;8.308;2022-11-20T05:06:37;50.10;;;32.63;;
12556;SDS011;6344;49.932;8.308;2022-11-20T05:09:09;47.87;;;31.93;;
12556;SDS011;6344;49.932;8.308;2022-11-20T05:11:38;44.80;;;29.40;;
12556;SDS011;6344;49.932;8.308;2022-11-20T05:14:07;46.20;;;31.20;;
12556;SDS011;6344;49.932;8.308;2022-11-20T05:16:43;49.37;;;31.30;;
12556;SDS011;6344;49.932;8.308;2022-11-20T05:19:10;44.03;;;31.27;;
12556;SDS011;6344;49.932;8.308;2022-11-20T05:21:39;55.87;;;32.20;;
12556;SDS011;6344;49.932;8.308;2022-11-20T05:24:06;42.23;;;28.67;;
12556;SDS011;6344;49.932;8.308;2022-11-20T05:26:36;45.80;;;28.50;;
12556;SDS011;6344;49.932;8.308;2022-11-20T05:29:04;49.20;;;31.27;;
12556;SDS011;6344;49.932;8.308;2022-11-20T05:31:31;52.20;;;31.20;;
12556;SDS011;6344;49.932;8.308;2022-11-20T05:33:59;43.73;;;28.80;;
12556;SDS011;6344;49.932;8.308;2022-11-20T05:36:31;46.63;;;30.63;;
12556;SDS011;6344;49.932;8.308;2022-11-20T05:39:00;47.07;;;31.33;;
12556;SDS011;6344;49.932;8.308;2022-11-20T05:41:30;48.37;;;32.00;;
12556;SDS011;6344;49.932;8.308;2022-11-20T05:44:01;50.70;;;30.80;;
12556;SDS011;6344;49.932;8.308;2022-11-20T05:46:36;49.07;;;30.30;;
12556;SDS011;6344;49.932;8.308;2022-11-20T05:49:06;48.00;;;29.77;;
12556;SDS011;6344;49.932;8.308;2022-11-20T05:51:32;46.43;;;28.13;;
12556;SDS011;6344;49.932;8.308;2022-11-20T05:53:59;46.03;;;29.57;;
12556;SDS011;6344;49.932;8.308;2022-11-20T05:56:27;45.93;;;29.03;;
12556;SDS011;6344;49.932;8.308;2022-11-20T05:58:56;48.07;;;31.87;;
12556;SDS011;6344;49.932;8.308;2022-11-20T06:01:25;48.67;;;30.53;;
12556;SDS011;6344;49.932;8.308;2022-11-20T06:03:53;51.93;;;30.57;;
12556;SDS011;6344;49.932;8.308;2022-11-20T06:06:25;46.93;;;30.00;;
12556;SDS011;6344;49.932;8.308;2022-11-20T06:08:54;54.43;;;32.60;;
12556;SDS011;6344;49.932;8.308;2022-11-20T06:11:26;48.27;;;30.87;;
12556;SDS011;6344;49.932;8.308;2022-11-20T06:14:01;49.83;;;29.40;;
12556;SDS011;6344;49.932;8.308;2022-11-20T06:16:33;46.80;;;29.53;;
12556;SDS011;6344;49.932;8.308;2022-11-20T06:19:02;47.40;;;30.77;;
12556;SDS011;6344;49.932;8.308;2022-11-20T06:21:30;46.50;;;30.67;;
12556;SDS011;6344;49.932;8.308;2022-11-20T06:23:57;47.10;;;29.37;;
12556;SDS011;6344;49.932;8.308;2022-11-20T06:26:24;46.60;;;29.70;;
12556;SDS011;6344;49.932;8.308;2022-11-20T06:28:54;43.40;;;28.37;;
12556;SDS011;6344;49.932;8.308;2022-11-20T06:31:22;45.00;;;29.93;;
12556;SDS011;6344;49.932;8.308;2022-11-20T06:34:04;46.20;;;30.90;;
12556;SDS011;6344;49.932;8.308;2022-11-20T06:36:39;41.57;;;29.53;;
12556;SDS011;6344;49.932;8.308;2022-11-20T06:39:13;43.93;;;29.97;;
12556;SDS011;6344;49.932;8.308;2022-11-20T06:41:51;42.53;;;27.53;;
12556;SDS011;6344;49.932;8.308;2022-11-20T06:44:22;43.93;;;30.80;;
12556;SDS011;6344;49.932;8.308;2022-11-20T06:47:01;39.53;;;26.37;;
12556;SDS011;6344;49.932;8.308;2022-11-20T06:49:36;39.93;;;27.47;;
12556;SDS011;6344;49.932;8.308;2022-11-20T06:52:07;41.63;;;27.63;;
12556;SDS011;6344;49.932;8.308;2022-11-20T06:54:34;46.33;;;28.17;;
12556;SDS011;6344;49.932;8.308;2022-11-20T06:57:09;41.10;;;28.57;;
12556;SDS011;6344;49.932;8.308;2022-11-20T06:59:38;43.63;;;29.90;;
12556;SDS011;6344;49.932;8.308;2022-11-20T07:02:05;47.80;;;27.63;;
12556;SDS011;6344;49.932;8.308;2022-11-20T07:04:39;42.43;;;29.57;;
12556;SDS011;6344;49.932;8.308;2022-11-20T07:07:07;43.97;;;28.97;;
12556;SDS011;6344;49.932;8.308;2022-11-20T07:09:40;44.67;;;30.13;;
12556;SDS011;6344;49.932;8.308;2022-11-20T07:12:10;47.67;;;30.13;;
12556;SDS011;6344;49.932;8.308;2022-11-20T07:14:40;45.03;;;29.17;;
12556;SDS011;6344;49.932;8.308;2022-11-20T07:17:11;40.13;;;27.37;;
12556;SDS011;6344;49.932;8.308;2022-11-20T07:19:40;38.43;;;27.43;;
12556;SDS011;6344;49.932;8.308;2022-11-20T07:22:10;44.30;;;28.07;;
12556;SDS011;6344;49.932;8.308;2022-11-20T07:24:38;41.63;;;26.50;;
12556;SDS011;6344;49.932;8.308;2022-11-20T07:27:06;45.27;;;28.20;;
12556;SDS011;6344;49.932;8.308;2022-11-20T07:29:35;45.30;;;29.17;;
12556;SDS011;6344;49.932;8.308;2022-11-20T07:32:02;38.50;;;27.07;;
12556;SDS011;6344;49.932;8.308;2022-11-20T07:34:30;47.53;;;28.10;;
12556;SDS011;6344;49.932;8.308;2022-11-20T07:37:00;41.03;;;27.33;;
12556;SDS011;6344;49.932;8.308;2022-11-20T07:39:30;38.10;;;26.00;;
12556;SDS011;6344;49.932;8.308;2022-11-20T07:41:57;42.13;;;28.07;;
12556;SDS011;6344;49.932;8.308;2022-11-20T07:44:26;42.90;;;27.27;;
12556;SDS011;6344;49.932;8.308;2022-11-20T07:46:58;34.33;;;24.90;;
12556;SDS011;6344;49.932;8.308;2022-11-20T07:49:26;34.60;;;25.33;;
12556;SDS011;6344;49.932;8.308;2022-11-20T07:51:53;35.23;;;25.37;;
12556;SDS011;6344;49.932;8.308;2022-11-20T07:54:20;42.70;;;29.67;;
12556;SDS011;6344;49.932;8.308;2022-11-20T07:56:53;40.30;;;28.97;;
12556;SDS011;6344;49.932;8.308;2022-11-20T07:59:20;42.80;;;29.03;;
12556;SDS011;6344;49.932;8.308;2022-11-20T08:01:47;43.50;;;30.00;;
12556;SDS011;6344;49.932;8.308;2022-11-20T08:04:13;43.53;;;30.30;;
12556;SDS011;6344;49.932;8.308;2022-11-20T08:06:41;44.80;;;29.77;;
12556;SDS011;6344;49.932;8.308;2022-11-20T08:09:08;38.57;;;29.23;;
12556;SDS011;6344;49.932;8.308;2022-11-20T08:11:34;40.23;;;29.93;;
12556;SDS011;6344;49.932;8.308;2022-11-20T08:14:23;40.87;;;28.63;;
12556;SDS011;6344;49.932;8.308;2022-11-20T08:16:49;42.57;;;30.20;;
12556;SDS011;6344;49.932;8.308;2022-11-20T08:19:17;41.77;;;30.23;;
12556;SDS011;6344;49.932;8.308;2022-11-20T08:21:47;43.60;;;30.17;;
12556;SDS011;6344;49.932;8.308;2022-11-20T08:24:16;41.80;;;29.53;;
12556;SDS011;6344;49.932;8.308;2022-11-20T08:26:42;39.97;;;27.00;;
12556;SDS011;6344;49.932;8.308;2022-11-20T08:29:18;37.47;;;29.87;;
12556;SDS011;6344;49.932;8.308;2022-11-20T08:31:46;37.00;;;26.97;;
12556;SDS011;6344;49.932;8.308;2022-11-20T08:34:15;40.20;;;27.53;;
12556;SDS011;6344;49.932;8.308;2022-11-20T08:36:42;35.27;;;26.13;;
12556;SDS011;6344;49.932;8.308;2022-11-20T08:39:11;33.47;;;26.17;;
12556;SDS011;6344;49.932;8.308;2022-11-20T08:41:38;38.70;;;27.13;;
12556;SDS011;6344;49.932;8.308;2022-11-20T08:44:06;34.30;;;25.97;;
12556;SDS011;6344;49.932;8.308;2022-11-20T08:46:36;39.23;;;28.00;;
12556;SDS011;6344;49.932;8.308;2022-11-20T08:49:06;41.47;;;26.90;;
12556;SDS011;6344;49.932;8.308;2022-11-20T08:51:35;39.60;;;27.83;;
12556;SDS011;6344;49.932;8.308;2022-11-20T08:54:03;38.70;;;28.67;;
12556;SDS011;6344;49.932;8.308;2022-11-20T08:56:32;34.70;;;27.60;;
12556;SDS011;6344;49.932;8.308;2022-11-20T08:59:01;34.13;;;27.60;;
12556;SDS011;6344;49.932;8.308;2022-11-20T09:01:28;37.03;;;27.17;;
12556;SDS011;6344;49.932;8.308;2022-11-20T09:03:56;36.27;;;26.23;;
12556;SDS011;6344;49.932;8.308;2022-11-20T09:06:27;36.60;;;26.70;;
12556;SDS011;6344;49.932;8.308;2022-11-20T09:08:54;36.10;;;28.10;;
12556;SDS011;6344;49.932;8.308;2022-11-20T09:11:21;34.67;;;27.87;;
12556;SDS011;6344;49.932;8.308;2022-11-20T09:13:48;38.43;;;28.60;;
12556;SDS011;6344;49.932;8.308;2022-11-20T09:16:18;34.97;;;26.20;;
12556;SDS011;6344;49.932;8.308;2022-11-20T09:18:45;35.20;;;25.50;;
12556;SDS011;6344;49.932;8.308;2022-11-20T09:21:21;37.67;;;29.00;;
12556;SDS011;6344;49.932;8.308;2022-11-20T09:23:49;36.03;;;25.60;;
12556;SDS011;6344;49.932;8.308;2022-11-20T09:26:18;40.80;;;32.10;;
12556;SDS011;6344;49.932;8.308;2022-11-20T09:28:48;33.43;;;26.00;;
12556;SDS011;6344;49.932;8.308;2022-11-20T09:31:21;36.80;;;26.37;;
12556;SDS011;6344;49.932;8.308;2022-11-20T09:33:50;34.30;;;25.77;;
12556;SDS011;6344;49.932;8.308;2022-11-20T09:36:22;37.50;;;25.30;;
12556;SDS011;6344;49.932;8.308;2022-11-20T09:38:49;30.63;;;23.90;;
12556;SDS011;6344;49.932;8.308;2022-11-20T09:41:36;36.27;;;27.50;;
12556;SDS011;6344;49.932;8.308;2022-11-20T09:44:24;33.50;;;24.43;;
12556;SDS011;6344;49.932;8.308;2022-11-20T09:47:09;33.77;;;25.77;;
12556;SDS011;6344;49.932;8.308;2022-11-20T09:49:52;34.10;;;26.30;;
12556;SDS011;6344;49.932;8.308;2022-11-20T09:52:35;39.83;;;26.40;;
12556;SDS011;6344;49.932;8.308;2022-11-20T09:55:13;38.33;;;26.90;;
12556;SDS011;6344;49.932;8.308;2022-11-20T09:57:41;34.47;;;26.37;;
12556;SDS011;6344;49.932;8.308;2022-11-20T10:00:12;37.80;;;28.50;;
12556;SDS011;6344;49.932;8.308;2022-11-20T10:02:41;33.30;;;25.60;;
12556;SDS011;6344;49.932;8.308;2022-11-20T10:05:18;33.40;;;28.63;;
12556;SDS011;6344;49.932;8.308;2022-11-20T10:07:51;38.97;;;31.40;;
12556;SDS011;6344;49.932;8.308;2022-11-20T10:10:27;34.13;;;27.13;;
12556;SDS011;6344;49.932;8.308;2022-11-20T10:13:11;35.13;;;26.43;;
12556;SDS011;6344;49.932;8.308;2022-11-20T10:15:52;36.10;;;26.50;;
12556;SDS011;6344;49.932;8.308;2022-11-20T10:18:33;40.60;;;30.00;;
12556;SDS011;6344;49.932;8.308;2022-11-20T10:21:09;49.17;;;40.00;;
12556;SDS011;6344;49.932;8.308;2022-11-20T10:23:55;36.13;;;27.33;;
12556;SDS011;6344;49.932;8.308;2022-11-20T10:26:35;36.27;;;27.60;;
12556;SDS011;6344;49.932;8.308;2022-11-20T10:29:11;38.57;;;29.07;;
12556;SDS011;6344;49.932;8.308;2022-11-20T10:31:42;34.53;;;27.67;;
12556;SDS011;6344;49.932;8.308;2022-11-20T10:34:18;35.67;;;27.67;;
12556;SDS011;6344;49.932;8.308;2022-11-20T10:36:50;43.73;;;34.27;;
12556;SDS011;6344;49.932;8.308;2022-11-20T10:39:24;33.37;;;25.40;;
12556;SDS011;6344;49.932;8.308;2022-11-20T10:42:00;36.50;;;26.87;;
12556;SDS011;6344;49.932;8.308;2022-11-20T10:44:31;41.07;;;29.10;;
12556;SDS011;6344;49.932;8.308;2022-11-20T10:47:15;38.10;;;26.33;;
12556;SDS011;6344;49.932;8.308;2022-11-20T10:49:48;36.83;;;28.77;;
12556;SDS011;6344;49.932;8.308;2022-11-20T10:52:19;39.00;;;28.53;;
12556;SDS011;6344;49.932;8.308;2022-11-20T10:54:57;36.63;;;28.37;;
12556;SDS011;6344;49.932;8.308;2022-11-20T10:57:35;60.90;;;44.50;;
12556;SDS011;6344;49.932;8.308;2022-11-20T11:00:17;38.63;;;28.70;;
12556;SDS011;6344;49.932;8.308;2022-11-20T11:02:46;32.87;;;25.33;;
12556;SDS011;6344;49.932;8.308;2022-11-20T11:05:17;30.97;;;25.47;;
12556;SDS011;6344;49.932;8.308;2022-11-20T11:07:54;31.30;;;25.77;;
12556;SDS011;6344;49.932;8.308;2022-11-20T11:10:26;34.10;;;26.47;;
12556;SDS011;6344;49.932;8.308;2022-11-20T11:13:00;26.00;;;23.17;;
12556;SDS011;6344;49.932;8.308;2022-11-20T11:15:37;27.53;;;24.70;;
12556;SDS011;6344;49.932;8.308;2022-11-20T11:18:05;26.10;;;22.20;;
12556;SDS011;6344;49.932;8.308;2022-11-20T11:20:37;26.77;;;22.67;;
12556;SDS011;6344;49.932;8.308;2022-11-20T11:23:10;24.50;;;19.70;;
12556;SDS011;6344;49.932;8.308;2022-11-20T11:25:57;24.97;;;20.97;;
12556;SDS011;6344;49.932;8.308;2022-11-20T11:28:26;29.23;;;23.60;;
12556;SDS011;6344;49.932;8.308;2022-11-20T11:30:54;25.47;;;20.90;;
12556;SDS011;6344;49.932;8.308;2022-11-20T11:33:23;34.70;;;29.53;;
12556;SDS011;6344;49.932;8.308;2022-11-20T11:35:56;26.13;;;22.67;;
12556;SDS011;6344;49.932;8.308;2022-11-20T11:38:28;27.17;;;22.73;;
12556;SDS011;6344;49.932;8.308;2022-11-20T11:40:59;23.20;;;20.80;;
12556;SDS011;6344;49.932;8.308;2022-11-20T11:43:38;22.27;;;20.03;;
12556;SDS011;6344;49.932;8.308;2022-11-20T11:46:31;22.70;;;18.93;;
12556;SDS011;6344;49.932;8.308;2022-11-20T11:49:11;24.60;;;21.20;;
12556;SDS011;6344;49.932;8.308;2022-11-20T11:51:45;23.00;;;19.03;;
12556;SDS011;6344;49.932;8.308;2022-11-20T11:54:22;24.33;;;21.70;;
12556;SDS011;6344;49.932;8.308;2022-11-20T11:57:03;24.63;;;21.27;;
12556;SDS011;6344;49.932;8.308;2022-11-20T11:59:39;26.80;;;23.03;;
12556;SDS011;6344;49.932;8.308;2022-11-20T12:02:23;27.13;;;22.60;;
12556;SDS011;6344;49.932;8.308;2022-11-20T12:05:04;27.00;;;22.43;;
12556;SDS011;6344;49.932;8.308;2022-11-20T12:07:41;28.00;;;23.17;;
12556;SDS011;6344;49.932;8.308;2022-11-20T12:10:14;24.83;;;20.90;;
12556;SDS011;6344;49.932;8.308;2022-11-20T12:12:51;23.83;;;20.00;;
12556;SDS011;6344;49.932;8.308;2022-11-20T12:15:24;23.07;;;20.57;;
12556;SDS011;6344;49.932;8.308;2022-11-20T12:17:54;25.50;;;20.20;;
12556;SDS011;6344;49.932;8.308;2022-11-20T12:20:26;22.33;;;19.93;;
12556;SDS011;6344;49.932;8.308;2022-11-20T12:23:01;21.30;;;19.00;;
12556;SDS011;6344;49.932;8.308;2022-11-20T12:25:38;23.87;;;19.57;;
12556;SDS011;6344;49.932;8.308;2022-11-20T12:28:23;23.10;;;20.27;;
12556;SDS011;6344;49.932;8.308;2022-11-20T12:31:20;29.30;;;22.70;;
12556;SDS011;6344;49.932;8.308;2022-11-20T12:34:07;23.40;;;20.10;;
12556;SDS011;6344;49.932;8.308;2022-11-20T12:36:49;26.03;;;19.80;;
12556;SDS011;6344;49.932;8.308;2022-11-20T12:39:36;23.40;;;20.90;;
12556;SDS011;6344;49.932;8.308;2022-11-20T12:42:14;27.97;;;23.40;;
12556;SDS011;6344;49.932;8.308;2022-11-20T12:45:20;24.30;;;21.23;;
12556;SDS011;6344;49.932;8.308;2022-11-20T12:50:52;21.97;;;19.40;;
12556;SDS011;6344;49.932;8.308;2022-11-20T12:53:37;24.13;;;21.43;;
12556;SDS011;6344;49.932;8.308;2022-11-20T12:56:12;26.43;;;21.50;;
12556;SDS011;6344;49.932;8.308;2022-11-20T12:58:54;23.50;;;21.00;;
12556;SDS011;6344;49.932;8.308;2022-11-20T13:01:37;24.40;;;21.00;;
12556;SDS011;6344;49.932;8.308;2022-11-20T13:04:16;21.13;;;18.20;;
12556;SDS011;6344;49.932;8.308;2022-11-20T13:06:56;21.33;;;19.07;;
12556;SDS011;6344;49.932;8.308;2022-11-20T13:09:25;22.50;;;20.10;;
12556;SDS011;6344;49.932;8.308;2022-11-20T13:11:58;23.40;;;20.20;;
12556;SDS011;6344;49.932;8.308;2022-11-20T13:14:33;23.60;;;21.03;;
12556;SDS011;6344;49.932;8.308;2022-11-20T13:17:11;22.80;;;20.10;;
12556;SDS011;6344;49.932;8.308;2022-11-20T13:19:51;23.70;;;21.10;;
12556;SDS011;6344;49.932;8.308;2022-11-20T13:22:25;23.90;;;20.20;;
12556;SDS011;6344;49.932;8.308;2022-11-20T13:24:53;21.83;;;19.40;;
12556;SDS011;6344;49.932;8.308;2022-11-20T13:27:20;24.83;;;22.13;;
12556;SDS011;6344;49.932;8.308;2022-11-20T13:29:58;23.47;;;20.23;;
12556;SDS011;6344;49.932;8.308;2022-11-20T13:32:28;26.53;;;21.77;;
12556;SDS011;6344;49.932;8.308;2022-11-20T13:34:58;26.10;;;22.50;;
12556;SDS011;6344;49.932;8.308;2022-11-20T13:37:36;25.43;;;21.70;;
12556;SDS011;6344;49.932;8.308;2022-11-20T13:40:05;26.87;;;23.20;;
12556;SDS011;6344;49.932;8.308;2022-11-20T13:42:43;24.07;;;21.47;;
12556;SDS011;6344;49.932;8.308;2022-11-20T13:45:21;24.00;;;20.80;;
12556;SDS011;6344;49.932;8.308;2022-11-20T13:47:56;28.00;;;24.50;;
12556;SDS011;6344;49.932;8.308;2022-11-20T13:50:37;29.30;;;25.20;;
12556;SDS011;6344;49.932;8.308;2022-11-20T13:53:13;28.13;;;23.40;;
12556;SDS011;6344;49.932;8.308;2022-11-20T13:55:54;25.97;;;23.03;;
12556;SDS011;6344;49.932;8.308;2022-11-20T13:58:28;27.17;;;23.83;;
12556;SDS011;6344;49.932;8.308;2022-11-20T14:01:08;28.77;;;23.20;;
12556;SDS011;6344;49.932;8.308;2022-11-20T14:03:43;31.10;;;25.83;;
12556;SDS011;6344;49.932;8.308;2022-11-20T14:06:11;29.77;;;25.27;;
12556;SDS011;6344;49.932;8.308;2022-11-20T14:08:53;28.67;;;24.47;;
12556;SDS011;6344;49.932;8.308;2022-11-20T14:11:23;28.33;;;22.20;;
12556;SDS011;6344;49.932;8.308;2022-11-20T14:13:59;27.00;;;22.90;;
12556;SDS011;6344;49.932;8.308;2022-11-20T14:16:28;26.10;;;20.57;;
12556;SDS011;6344;49.932;8.308;2022-11-20T14:18:57;25.37;;;22.10;;
12556;SDS011;6344;49.932;8.308;2022-11-20T14:21:42;32.43;;;24.93;;
12556;SDS011;6344;49.932;8.308;2022-11-20T14:24:12;30.60;;;26.63;;
12556;SDS011;6344;49.932;8.308;2022-11-20T14:26:41;29.40;;;22.50;;
12556;SDS011;6344;49.932;8.308;2022-11-20T14:29:10;28.53;;;23.80;;
12556;SDS011;6344;49.932;8.308;2022-11-20T14:31:42;30.57;;;21.70;;
12556;SDS011;6344;49.932;8.308;2022-11-20T14:34:14;29.80;;;23.70;;
12556;SDS011;6344;49.932;8.308;2022-11-20T14:36:43;26.50;;;23.63;;
12556;SDS011;6344;49.932;8.308;2022-11-20T14:39:11;27.60;;;23.43;;
12556;SDS011;6344;49.932;8.308;2022-11-20T14:41:50;26.57;;;20.47;;
12556;SDS011;6344;49.932;8.308;2022-11-20T14:44:18;29.50;;;23.17;;
12556;SDS011;6344;49.932;8.308;2022-11-20T14:46:49;28.30;;;21.73;;
12556;SDS011;6344;49.932;8.308;2022-11-20T14:49:23;29.93;;;23.37;;
12556;SDS011;6344;49.932;8.308;2022-11-20T14:51:58;27.93;;;23.13;;
12556;SDS011;6344;49.932;8.308;2022-11-20T14:54:29;28.90;;;22.43;;
12556;SDS011;6344;49.932;8.308;2022-11-20T14:56:59;25.80;;;22.00;;
12556;SDS011;6344;49.932;8.308;2022-11-20T14:59:29;26.67;;;22.00;;
12556;SDS011;6344;49.932;8.308;2022-11-20T15:02:01;32.93;;;25.97;;
12556;SDS011;6344;49.932;8.308;2022-11-20T15:04:32;31.77;;;24.27;;
12556;SDS011;6344;49.932;8.308;2022-11-20T15:07:00;26.40;;;23.10;;
12556;SDS011;6344;49.932;8.308;2022-11-20T15:09:29;28.60;;;23.50;;